Airfield :
LOGIN :

Register | Disclaimer

   EN    FR    IT 

 










Legend :    VFR   Marginal VFR   IFR   Intensive IFR   Very Intensive IFR
Visi :
Ceiling :
>= 8 km
>= 3000ft
5 to 8 km
1000 to 3000 ft
1500m to 5 km
500 to 1000 ft
800 to 1500m
200 to 500 ft
< 800m
< 200 ft
Symbols :   Thunderstorms  Fog  Heavy snow  Heavy precipitations  Wind > 20 kt
SIGMETs :     Misc.  Thunderstorms  Icing  Turbulence  Mountain Waves  Volcanic Ashes






- Airport Elevation : 90 ft
- IATA code : NTE


LFRS - Nantes

CURRENT METAR :
  • 141630Z AUTO 20003KT 9999 ///CB 06/04 Q0997 TEMPO 4000 SHRA BECMG SCT018

EXPIRED METARs :
  • 141600Z AUTO 19003KT CAVOK 08/04 Q0996 TEMPO 4000 SHRA BKN015TCU
  • 141430Z AUTO 23002KT CAVOK 09/04 Q0996 TEMPO 4000 SHRA BKN015TCU
  • 141400Z AUTO 21004KT 180V240 CAVOK 08/04 Q0996 TEMPO 4000 SHRA BKN015TCU

TAF TAF LFRS
Valid from the 14 at 12:00 until the 15 at 18:00 UTC


141100Z 1412/1518 15005KT 9999 SCT018
PROB30
TEMPO 1414/1418 4000 SHRA BKN015TCU
BECMG 1422/1501 4000 BR
BECMG 1501/1503 2000 BR OVC004
TEMPO 1501/1509 0400 FG VV///
PROB30
TEMPO 1506/1508 0400 FZFG VV///
BECMG 1509/1512 8000 NSW BKN007
BECMG 1512/1515 SCT010
ATIS : +33 2 40 05 12 74



MET'MAP, your aeronautical weather chart ! - Copyright ORBIFLY December 2007 - Disclaimer

ORBIFLY MET'MAP TEAM :

Programming & Development : Alexandra Zaïnal
Concept & Development : Baudouin d'Aumeries
Co-Development & Prog : Marc-Olivier Méhu
Technical & hardware support : Manuel Goepfert

Contact : metmap@orbifly.com




SOURCES & CREDITS :

   NOAA